Time;durP1;ratioP1;P1;durP2;ratioP2;P2;SDS_P1;SDS_P2;PMS_P1;PMS_P2;Temp;Humidity;BMP_temperature;BMP_pressure;BME280_temperature;BME280_humidity;BME280_pressure;Samples;Min_cycle;Max_cycle;Signal;HPM_P1;HPM_P2
2021/12/24 00:01:13;;;;;;;11.68;7.68;;;5.80;73.10;;;;;;5007462;28;20029;-66
2021/12/24 00:03:39;;;;;;;11.95;7.53;;;5.80;73.10;;;;;;5007561;28;20033;-67
2021/12/24 00:06:06;;;;;;;10.85;7.10;;;5.70;73.30;;;;;;5014223;28;20048;-67
2021/12/24 00:08:32;;;;;;;13.63;7.00;;;5.80;73.40;;;;;;5011500;28;20059;-67
2021/12/24 00:11:00;;;;;;;11.80;6.78;;;5.70;73.40;;;;;;5001710;28;20045;-66
2021/12/24 00:13:28;;;;;;;11.38;6.70;;;5.70;73.40;;;;;;5010415;28;20079;-66
2021/12/24 00:16:06;;;;;;;11.25;6.50;;;5.70;73.60;;;;;;5009648;28;20034;-67
2021/12/24 00:37:16;;;;;;;11.88;5.90;;;5.90;73.90;;;;;;5018868;28;20038;-67
2021/12/24 00:39:51;;;;;;;9.77;5.95;;;5.90;73.70;;;;;;5025025;28;20132;-65
2021/12/24 00:42:17;;;;;;;12.77;6.38;;;5.90;73.60;;;;;;5027480;28;20504;-67
2021/12/24 00:44:43;;;;;;;9.60;6.07;;;6.00;73.60;;;;;;5027180;28;20034;-67
2021/12/24 00:47:08;;;;;;;10.77;6.45;;;6.00;73.60;;;;;;5025937;28;20116;-67
2021/12/24 00:49:34;;;;;;;10.35;5.93;;;6.00;73.50;;;;;;5032280;28;20033;-67
2021/12/24 00:55:03;;;;;;;10.35;5.85;;;6.00;73.40;;;;;;5026433;28;20031;-66
2021/12/24 00:57:29;;;;;;;9.38;5.53;;;6.10;73.30;;;;;;5027548;28;20071;-66
2021/12/24 00:59:56;;;;;;;8.57;5.20;;;6.10;73.30;;;;;;5035297;28;20048;-67
2021/12/24 01:02:22;;;;;;;8.68;5.57;;;6.10;73.40;;;;;;5028223;28;20033;-67
2021/12/24 01:04:47;;;;;;;9.32;5.45;;;6.10;73.30;;;;;;5036185;28;20033;-67
2021/12/24 01:07:13;;;;;;;8.00;5.60;;;6.10;73.20;;;;;;5026155;28;20060;-66
2021/12/24 01:09:38;;;;;;;10.73;5.72;;;6.10;73.10;;;;;;5022789;28;20044;-67
2021/12/24 01:12:05;;;;;;;9.40;5.80;;;6.20;73.10;;;;;;5019826;28;20037;-66
2021/12/24 01:14:31;;;;;;;9.35;5.47;;;6.20;73.10;;;;;;5024396;28;20532;-66
2021/12/24 01:17:29;;;;;;;9.75;5.70;;;6.20;73.10;;;;;;5022689;28;20118;-66
2021/12/24 01:19:48;;;;;;;10.23;5.72;;;6.20;73.00;;;;;;5033287;28;20128;-67
2021/12/24 01:23:26;;;;;;;9.30;5.40;;;6.20;73.10;;;;;;5025953;28;20030;-67
2021/12/24 01:25:20;;;;;;;7.53;5.10;;;6.20;72.90;;;;;;4999913;28;20069;-67
2021/12/24 01:38:24;;;;;;;9.23;5.28;;;6.30;72.50;;;;;;5006570;28;20053;-67
2021/12/24 01:43:22;;;;;;;7.65;4.90;;;6.30;72.50;;;;;;5027073;28;20743;-66
2021/12/24 01:45:51;;;;;;;8.27;5.10;;;6.30;72.50;;;;;;5021502;28;20408;-67
2021/12/24 01:48:17;;;;;;;11.77;5.38;;;6.30;72.40;;;;;;5025618;28;20554;-66
2021/12/24 01:50:46;;;;;;;8.40;5.28;;;6.30;72.50;;;;;;5027065;28;20113;-67
2021/12/24 01:53:15;;;;;;;9.20;5.18;;;6.30;72.60;;;;;;5033005;28;20120;-67
2021/12/24 01:55:41;;;;;;;8.10;5.03;;;6.30;72.60;;;;;;5025071;28;20045;-66
2021/12/24 01:58:07;;;;;;;8.52;5.22;;;6.30;72.60;;;;;;5031765;28;20063;-66
2021/12/24 02:00:40;;;;;;;6.90;4.30;;;6.30;72.60;;;;;;5022131;28;20114;-66
2021/12/24 02:03:08;;;;;;;7.53;4.35;;;6.30;72.60;;;;;;5021026;28;20452;-67
2021/12/24 02:05:34;;;;;;;9.98;4.68;;;6.30;72.70;;;;;;5028255;28;20036;-68
2021/12/24 02:08:00;;;;;;;6.68;4.28;;;6.40;72.70;;;;;;5023225;28;20037;-67
2021/12/24 02:10:26;;;;;;;6.68;4.55;;;6.40;72.70;;;;;;5025247;28;20042;-67
2021/12/24 02:12:53;;;;;;;7.07;4.85;;;6.40;72.60;;;;;;5028006;28;20264;-67
2021/12/24 02:15:33;;;;;;;5.88;4.53;;;6.40;72.40;;;;;;5026666;28;20485;-67
2021/12/24 02:28:41;;;;;;;7.60;4.40;;;6.60;72.10;;;;;;5001984;28;20091;-66
2021/12/24 02:31:09;;;;;;;7.50;4.60;;;6.60;72.00;;;;;;5001545;28;20692;-67
2021/12/24 02:33:35;;;;;;;8.15;4.38;;;6.60;71.90;;;;;;5001736;28;20085;-67
2021/12/24 02:36:01;;;;;;;6.10;4.13;;;6.60;71.90;;;;;;5005653;28;20034;-67
2021/12/24 02:38:26;;;;;;;5.18;3.97;;;6.60;71.90;;;;;;5005258;28;20031;-66
2021/12/24 02:40:53;;;;;;;5.88;4.22;;;6.60;71.90;;;;;;5010310;28;20033;-66
2021/12/24 02:43:21;;;;;;;6.03;4.32;;;6.70;71.90;;;;;;5008179;28;20041;-68
2021/12/24 02:45:48;;;;;;;7.35;4.65;;;6.70;72.70;;;;;;5007197;28;20027;-65
2021/12/24 02:56:13;;;;;;;6.28;4.18;;;6.70;71.70;;;;;;5008391;28;20048;-67
2021/12/24 02:58:45;;;;;;;5.90;4.03;;;6.70;71.60;;;;;;5009614;28;20041;-67
2021/12/24 03:01:12;;;;;;;6.25;4.00;;;6.70;71.50;;;;;;5013173;28;20033;-66
2021/12/24 03:03:38;;;;;;;8.13;4.05;;;6.70;71.60;;;;;;5008584;28;20034;-67
2021/12/24 03:06:05;;;;;;;5.47;3.90;;;6.80;71.60;;;;;;5010454;28;20569;-67
2021/12/24 03:08:32;;;;;;;5.95;3.88;;;6.80;71.40;;;;;;5008097;28;20038;-66
2021/12/24 03:10:59;;;;;;;6.85;4.40;;;6.80;71.50;;;;;;5006273;28;20041;-66
2021/12/24 03:13:26;;;;;;;9.10;4.38;;;6.80;71.40;;;;;;5006035;28;20049;-67
2021/12/24 03:15:56;;;;;;;5.93;3.70;;;6.80;71.40;;;;;;5006115;28;20120;-66
2021/12/24 03:18:26;;;;;;;5.55;3.58;;;6.80;71.30;;;;;;5008719;28;20061;-67
2021/12/24 03:21:00;;;;;;;6.20;3.85;;;6.80;71.30;;;;;;5034779;28;20117;-67
2021/12/24 03:23:41;;;;;;;8.45;4.03;;;6.80;71.40;;;;;;5029997;28;20317;-67
2021/12/24 03:26:09;;;;;;;6.28;3.72;;;6.80;71.30;;;;;;5031475;28;20459;-65
2021/12/24 03:28:36;;;;;;;6.55;4.10;;;6.80;71.30;;;;;;5031875;28;20092;-67
2021/12/24 03:31:04;;;;;;;4.70;3.63;;;6.70;71.10;;;;;;5031922;28;20037;-67
2021/12/24 03:33:30;;;;;;;5.05;3.72;;;6.70;71.20;;;;;;5027168;28;20126;-67
2021/12/24 03:35:56;;;;;;;4.20;3.63;;;6.70;71.30;;;;;;5032424;28;20105;-68
2021/12/24 03:38:21;;;;;;;8.30;3.88;;;6.70;71.20;;;;;;5030393;28;20041;-66
2021/12/24 03:40:47;;;;;;;5.30;3.53;;;6.70;71.30;;;;;;5035326;28;20039;-67
2021/12/24 03:43:13;;;;;;;6.13;3.90;;;6.70;71.30;;;;;;5022728;28;20034;-66
2021/12/24 03:45:55;;;;;;;5.18;3.78;;;6.70;71.30;;;;;;5032331;28;20077;-67
2021/12/24 03:48:36;;;;;;;6.05;3.97;;;6.70;71.40;;;;;;5030349;28;20029;-67
2021/12/24 03:56:24;;;;;;;6.32;3.92;;;6.60;71.20;;;;;;5028301;28;20543;-65
2021/12/24 03:58:50;;;;;;;6.00;4.13;;;6.70;71.30;;;;;;5027164;28;20133;-67
2021/12/24 04:01:16;;;;;;;6.20;3.90;;;6.60;71.30;;;;;;5027243;28;20497;-67
2021/12/24 04:03:41;;;;;;;6.07;4.00;;;6.70;71.40;;;;;;5028772;28;20037;-67
2021/12/24 04:06:07;;;;;;;5.45;3.60;;;6.70;71.50;;;;;;5028808;28;20057;-67
2021/12/24 04:08:33;;;;;;;6.65;4.03;;;6.70;71.50;;;;;;5032890;28;20508;-66
2021/12/24 04:10:59;;;;;;;6.63;3.75;;;6.70;71.40;;;;;;5025465;28;20037;-66
2021/12/24 04:13:25;;;;;;;5.57;3.53;;;6.70;71.50;;;;;;5026219;28;20038;-67
2021/12/24 04:15:50;;;;;;;7.93;3.90;;;6.70;71.60;;;;;;5028578;28;20495;-67
2021/12/24 04:18:34;;;;;;;6.63;3.75;;;6.80;71.60;;;;;;5027792;28;20171;-69
2021/12/24 04:26:32;;;;;;;4.95;3.50;;;6.90;71.60;;;;;;5028717;28;20072;-66
2021/12/24 04:28:58;;;;;;;5.10;3.45;;;6.90;71.60;;;;;;5030813;28;20464;-67
2021/12/24 04:31:37;;;;;;;5.75;3.70;;;6.90;71.60;;;;;;5032755;28;20040;-67
2021/12/24 04:34:03;;;;;;;6.57;3.63;;;6.90;71.60;;;;;;5024621;28;20160;-67
2021/12/24 05:03:14;;;;;;;5.03;3.58;;;7.10;71.50;;;;;;5027843;28;20040;-67
2021/12/24 05:05:46;;;;;;;6.13;3.85;;;7.10;71.60;;;;;;5022061;28;20275;-67
2021/12/24 05:10:38;;;;;;;22.38;11.50;;;7.10;71.60;;;;;;5028444;28;20412;-65
2021/12/24 05:13:06;;;;;;;11.95;6.03;;;7.10;72.40;;;;;;5026029;28;20726;-67
2021/12/24 05:15:35;;;;;;;8.48;6.13;;;7.10;71.50;;;;;;5023709;28;20047;-67
2021/12/24 05:23:17;;;;;;;7.53;4.90;;;7.10;71.60;;;;;;5031167;28;20044;-67
2021/12/24 05:25:44;;;;;;;6.75;4.70;;;7.10;71.70;;;;;;5027182;28;20112;-67
2021/12/24 05:28:11;;;;;;;6.18;4.28;;;7.10;71.60;;;;;;5031562;28;20069;-67
2021/12/24 05:30:37;;;;;;;7.35;5.53;;;7.10;71.70;;;;;;5026936;28;20719;-67
2021/12/24 05:33:02;;;;;;;7.03;4.75;;;7.10;71.60;;;;;;5026117;28;20029;-63
2021/12/24 05:35:28;;;;;;;7.35;4.50;;;7.10;71.70;;;;;;5031876;28;20037;-66
2021/12/24 05:37:54;;;;;;;8.25;4.63;;;7.10;71.70;;;;;;5033681;28;20041;-67
2021/12/24 05:40:19;;;;;;;7.40;4.43;;;7.10;71.60;;;;;;5031133;28;20042;-67
2021/12/24 05:42:45;;;;;;;6.35;4.40;;;7.10;71.60;;;;;;5031135;28;20513;-67
2021/12/24 05:45:11;;;;;;;4.85;3.88;;;7.10;71.60;;;;;;5029330;28;20057;-67
2021/12/24 05:47:37;;;;;;;5.78;4.18;;;7.20;71.70;;;;;;5027583;28;20026;-67
2021/12/24 05:50:05;;;;;;;5.20;3.70;;;7.20;71.60;;;;;;5035538;28;20108;-67
2021/12/24 05:52:32;;;;;;;5.18;3.83;;;7.20;71.60;;;;;;5029302;28;20124;-67
2021/12/24 05:54:58;;;;;;;5.25;4.10;;;7.20;71.60;;;;;;5032285;28;20508;-67
2021/12/24 05:57:23;;;;;;;6.45;3.72;;;7.20;71.60;;;;;;5025666;28;20041;-66
2021/12/24 05:59:49;;;;;;;9.30;4.63;;;7.20;71.60;;;;;;5032859;28;20037;-67
2021/12/24 06:02:15;;;;;;;5.10;3.90;;;7.20;71.70;;;;;;5028162;28;21748;-67
2021/12/24 06:04:41;;;;;;;5.35;3.70;;;7.20;71.70;;;;;;5033806;28;20492;-67
2021/12/24 06:07:06;;;;;;;6.00;3.60;;;7.10;71.70;;;;;;5033447;28;20033;-67
2021/12/24 06:09:32;;;;;;;6.65;3.72;;;7.20;71.80;;;;;;5034929;28;20104;-67
2021/12/24 06:11:58;;;;;;;5.85;3.92;;;7.10;71.80;;;;;;5022364;28;20127;-66
2021/12/24 06:14:23;;;;;;;5.80;4.10;;;7.10;71.80;;;;;;5030647;28;20039;-67
2021/12/24 06:17:15;;;;;;;6.57;4.28;;;7.10;71.80;;;;;;5026274;28;20335;-67
2021/12/24 06:19:35;;;;;;;8.13;5.22;;;7.10;72.00;;;;;;5026966;28;20048;-67
2021/12/24 06:22:00;;;;;;;8.85;5.40;;;7.10;71.90;;;;;;5022088;28;20041;-67
2021/12/24 06:24:26;;;;;;;6.53;4.43;;;7.10;71.90;;;;;;5033314;28;20059;-67
2021/12/24 06:26:52;;;;;;;7.88;4.90;;;7.10;72.00;;;;;;5029168;28;20037;-66
2021/12/24 06:29:20;;;;;;;6.95;4.95;;;7.10;72.90;;;;;;5030880;28;20037;-67
2021/12/24 06:31:46;;;;;;;8.48;5.50;;;7.10;72.10;;;;;;5021655;28;20052;-70
2021/12/24 06:34:12;;;;;;;5.47;4.20;;;7.00;72.10;;;;;;5022385;28;20034;-67
2021/12/24 06:36:41;;;;;;;7.65;4.28;;;7.10;72.30;;;;;;5021486;28;20705;-67
2021/12/24 06:39:07;;;;;;;6.53;4.35;;;7.00;72.20;;;;;;5022403;28;20049;-67
2021/12/24 06:41:33;;;;;;;6.50;4.22;;;7.00;72.30;;;;;;5025220;28;20055;-67
2021/12/24 06:43:59;;;;;;;4.47;4.07;;;7.00;72.40;;;;;;5025758;28;20661;-67
2021/12/24 06:46:25;;;;;;;6.78;4.13;;;7.00;72.50;;;;;;5025236;28;20041;-64
2021/12/24 06:48:56;;;;;;;6.88;3.97;;;7.00;72.50;;;;;;5033879;28;20033;-67
2021/12/24 06:51:25;;;;;;;7.78;4.20;;;6.90;72.60;;;;;;5032694;28;20094;-67
2021/12/24 06:53:50;;;;;;;6.90;4.60;;;6.90;72.60;;;;;;5027444;28;20906;-67
2021/12/24 06:56:16;;;;;;;7.20;4.22;;;6.90;72.70;;;;;;5026615;28;20045;-67
2021/12/24 06:58:42;;;;;;;5.70;4.20;;;7.00;72.90;;;;;;5028506;28;20049;-66
2021/12/24 07:01:08;;;;;;;7.22;4.40;;;7.00;73.00;;;;;;5032334;28;20664;-67
2021/12/24 07:03:34;;;;;;;6.35;4.18;;;6.90;73.00;;;;;;5024606;28;20061;-66
2021/12/24 07:06:00;;;;;;;6.30;4.30;;;6.90;73.10;;;;;;5024609;28;20025;-67
2021/12/24 07:08:26;;;;;;;6.50;3.95;;;7.00;73.20;;;;;;5024766;28;20030;-66
2021/12/24 07:10:52;;;;;;;7.47;4.00;;;7.00;73.20;;;;;;5023518;28;20261;-67
2021/12/24 07:13:18;;;;;;;6.00;4.60;;;7.00;73.30;;;;;;5028245;28;20568;-67
2021/12/24 07:15:43;;;;;;;5.35;3.90;;;7.00;73.30;;;;;;5028038;28;20117;-67
2021/12/24 07:18:09;;;;;;;8.30;4.68;;;7.00;73.40;;;;;;5023214;28;20033;-65
2021/12/24 07:20:35;;;;;;;5.53;4.90;;;7.00;73.40;;;;;;5026140;28;20128;-67
2021/12/24 07:23:01;;;;;;;7.32;5.00;;;7.10;73.50;;;;;;5026417;28;20081;-67
2021/12/24 07:25:27;;;;;;;5.70;4.38;;;7.10;73.60;;;;;;5012466;28;20179;-64
2021/12/24 07:27:52;;;;;;;5.05;3.80;;;7.10;73.70;;;;;;5024136;28;20069;-67
2021/12/24 07:30:20;;;;;;;6.35;4.40;;;7.10;73.70;;;;;;5018059;28;20037;-67
2021/12/24 07:32:46;;;;;;;8.10;4.38;;;7.10;73.90;;;;;;5018197;28;20104;-67
2021/12/24 07:35:12;;;;;;;5.75;4.35;;;7.10;74.00;;;;;;5021800;28;20040;-68
2021/12/24 07:37:38;;;;;;;8.02;5.20;;;7.20;74.10;;;;;;5021960;28;20448;-66
2021/12/24 07:40:06;;;;;;;8.75;5.78;;;7.20;75.10;;;;;;5026838;28;20041;-67
2021/12/24 07:42:32;;;;;;;7.32;5.40;;;7.20;74.40;;;;;;5030753;28;20029;-67
2021/12/24 07:44:58;;;;;;;5.05;4.28;;;7.20;74.40;;;;;;5030728;28;20504;-67
2021/12/24 07:47:37;;;;;;;8.95;4.47;;;7.20;74.50;;;;;;5033349;28;20044;-67
2021/12/24 07:50:18;;;;;;;6.95;4.30;;;7.20;74.60;;;;;;5032569;28;20033;-67
2021/12/24 07:52:44;;;;;;;6.43;4.45;;;7.20;74.70;;;;;;5031842;28;20041;-67
2021/12/24 07:55:10;;;;;;;8.77;5.15;;;7.30;74.70;;;;;;5029923;28;20037;-67
2021/12/24 07:57:37;;;;;;;7.68;5.00;;;7.30;74.80;;;;;;5026513;28;20805;-67
2021/12/24 08:00:06;;;;;;;10.55;6.13;;;7.30;74.90;;;;;;5022094;28;20475;-67
2021/12/24 08:02:32;;;;;;;9.40;6.00;;;7.30;75.00;;;;;;5029459;28;20107;-66
2021/12/24 08:04:58;;;;;;;8.90;6.22;;;7.30;75.10;;;;;;5026647;28;20767;-66
2021/12/24 08:07:23;;;;;;;7.85;5.32;;;7.30;75.10;;;;;;5026784;28;20034;-66
2021/12/24 08:09:51;;;;;;;7.88;5.90;;;7.30;75.30;;;;;;5023419;28;20420;-66
2021/12/24 08:12:17;;;;;;;9.02;5.95;;;7.30;75.30;;;;;;5025025;28;20055;-66
2021/12/24 08:14:43;;;;;;;10.32;6.43;;;7.30;75.40;;;;;;5029051;28;20041;-66
2021/12/24 08:17:09;;;;;;;12.63;7.97;;;7.30;75.40;;;;;;5028167;28;20562;-65
2021/12/24 08:19:35;;;;;;;11.30;6.80;;;7.30;75.30;;;;;;5018377;28;20045;-66
2021/12/24 08:22:01;;;;;;;13.70;8.15;;;7.40;75.40;;;;;;5027065;28;20120;-67
2021/12/24 08:24:27;;;;;;;12.95;7.50;;;7.30;75.40;;;;;;5032687;28;20048;-65
2021/12/24 08:26:53;;;;;;;23.05;12.38;;;7.30;75.40;;;;;;5030841;28;20036;-67
2021/12/24 08:29:21;;;;;;;20.92;10.73;;;7.30;75.60;;;;;;5028171;28;20088;-66
2021/12/24 08:31:47;;;;;;;18.85;8.73;;;7.30;75.80;;;;;;5031047;28;20057;-67
2021/12/24 08:34:13;;;;;;;11.88;6.53;;;7.20;75.90;;;;;;5033762;28;20033;-67
2021/12/24 08:36:39;;;;;;;10.30;5.75;;;7.20;76.10;;;;;;5026558;28;20035;-66
2021/12/24 08:39:05;;;;;;;8.30;5.40;;;7.20;76.20;;;;;;5027026;28;20037;-66
2021/12/24 08:41:31;;;;;;;9.60;5.72;;;7.20;76.40;;;;;;5031295;28;20125;-67
2021/12/24 08:43:56;;;;;;;8.80;5.93;;;7.20;76.50;;;;;;5027573;28;20438;-66
2021/12/24 08:46:22;;;;;;;11.20;7.07;;;7.20;76.70;;;;;;5027845;28;20084;-66
2021/12/24 08:48:48;;;;;;;12.75;7.30;;;7.20;76.90;;;;;;5020453;28;20098;-67
2021/12/24 08:51:13;;;;;;;9.90;6.00;;;7.20;77.20;;;;;;5027951;28;20033;-67
2021/12/24 08:53:39;;;;;;;9.65;5.60;;;7.20;77.30;;;;;;5029459;28;20075;-67
2021/12/24 08:56:06;;;;;;;10.95;5.55;;;7.30;77.40;;;;;;5028296;28;20041;-67
2021/12/24 08:58:32;;;;;;;8.70;5.18;;;7.20;77.40;;;;;;5029449;28;20037;-67
2021/12/24 09:00:59;;;;;;;9.10;5.93;;;7.30;77.50;;;;;;5023614;28;20581;-67
2021/12/24 09:03:25;;;;;;;8.13;5.63;;;7.30;77.50;;;;;;5020802;28;20148;-67
2021/12/24 09:05:51;;;;;;;9.38;6.43;;;7.40;77.70;;;;;;5022859;28;20385;-66
2021/12/24 09:08:16;;;;;;;7.38;5.70;;;7.30;77.70;;;;;;5029175;28;20041;-67
2021/12/24 09:10:42;;;;;;;12.05;8.75;;;7.40;77.90;;;;;;5024035;28;20042;-67
2021/12/24 09:13:08;;;;;;;11.43;7.95;;;7.40;77.90;;;;;;5028238;28;20087;-67
2021/12/24 09:15:33;;;;;;;9.98;6.72;;;7.40;77.90;;;;;;5030029;28;20033;-67
2021/12/24 09:18:01;;;;;;;11.50;7.00;;;7.40;77.90;;;;;;5027534;28;20562;-65
2021/12/24 09:20:34;;;;;;;12.27;7.72;;;7.40;77.90;;;;;;5028686;28;20037;-67
2021/12/24 09:23:02;;;;;;;12.98;8.55;;;7.40;77.90;;;;;;5031394;28;20512;-67
2021/12/24 09:25:29;;;;;;;15.18;8.70;;;7.40;77.90;;;;;;5028549;28;20103;-67
2021/12/24 09:27:56;;;;;;;12.30;8.25;;;7.40;78.00;;;;;;5030246;28;20113;-66
2021/12/24 09:30:23;;;;;;;9.77;6.82;;;7.40;78.20;;;;;;5026304;28;20029;-66
2021/12/24 09:32:49;;;;;;;9.23;6.28;;;7.40;78.30;;;;;;5024544;28;20132;-66
2021/12/24 09:35:15;;;;;;;13.13;5.90;;;7.50;78.50;;;;;;5028004;28;20044;-67
2021/12/24 09:37:41;;;;;;;7.90;4.72;;;7.50;78.60;;;;;;5026419;28;20131;-68
2021/12/24 09:40:10;;;;;;;7.10;4.63;;;7.40;78.70;;;;;;5032987;28;20091;-68
2021/12/24 09:42:36;;;;;;;7.60;5.18;;;7.40;78.70;;;;;;5027368;28;20040;-67
2021/12/24 09:45:06;;;;;;;6.40;4.80;;;7.40;78.70;;;;;;5027415;28;20033;-67
2021/12/24 09:47:33;;;;;;;8.32;4.88;;;7.40;79.00;;;;;;5027429;28;20082;-67
2021/12/24 09:49:58;;;;;;;6.47;3.97;;;7.40;79.00;;;;;;5032385;28;20041;-67
2021/12/24 09:52:26;;;;;;;5.55;4.07;;;7.40;79.30;;;;;;5027426;28;20067;-67
2021/12/24 09:54:52;;;;;;;6.75;3.65;;;7.40;79.50;;;;;;5028478;28;20049;-67
2021/12/24 09:57:18;;;;;;;4.40;3.60;;;7.40;79.60;;;;;;5026805;28;20531;-66
2021/12/24 09:59:44;;;;;;;5.03;3.95;;;7.40;79.80;;;;;;5027391;28;20044;-66
2021/12/24 10:02:16;;;;;;;7.45;3.88;;;7.40;80.00;;;;;;5025645;28;20084;-67
2021/12/24 10:04:43;;;;;;;6.28;3.78;;;7.40;79.90;;;;;;5023439;28;20033;-66
2021/12/24 10:07:12;;;;;;;7.30;4.10;;;7.40;80.10;;;;;;5023021;28;20044;-66
2021/12/24 10:09:39;;;;;;;4.65;3.67;;;7.30;80.10;;;;;;5030130;28;20036;-66
2021/12/24 10:12:08;;;;;;;4.15;3.40;;;7.30;80.20;;;;;;5022121;28;20041;-65
2021/12/24 10:14:39;;;;;;;5.30;3.63;;;7.30;80.50;;;;;;5030073;28;20138;-66
2021/12/24 10:17:17;;;;;;;4.85;3.55;;;7.30;80.80;;;;;;5027224;28;20037;-67
2021/12/24 10:19:54;;;;;;;9.70;6.30;;;7.30;81.40;;;;;;5029366;28;20038;-66
2021/12/24 10:22:21;;;;;;;4.93;3.90;;;7.30;81.70;;;;;;5030798;28;20033;-67
2021/12/24 10:25:10;;;;;;;5.22;3.50;;;7.30;81.30;;;;;;5029752;28;20037;-66
2021/12/24 10:27:38;;;;;;;5.82;4.40;;;7.30;82.20;;;;;;5029547;28;20129;-67
2021/12/24 10:30:21;;;;;;;5.30;4.05;;;7.40;81.60;;;;;;5027346;28;20091;-66
2021/12/24 10:32:48;;;;;;;6.05;3.53;;;7.40;82.20;;;;;;5031236;28;20041;-66
2021/12/24 10:35:21;;;;;;;7.07;4.68;;;7.40;81.70;;;;;;5036361;28;20398;-67
2021/12/24 10:38:06;;;;;;;6.30;4.20;;;7.40;82.00;;;;;;5033817;28;20045;-66
2021/12/24 10:40:32;;;;;;;6.10;4.75;;;7.40;82.00;;;;;;5030273;28;20044;-66
2021/12/24 10:42:58;;;;;;;7.55;5.50;;;7.50;82.10;;;;;;5033763;28;20032;-67
2021/12/24 10:45:24;;;;;;;5.63;4.40;;;7.50;82.40;;;;;;5033928;28;20401;-66
2021/12/24 10:47:50;;;;;;;9.55;5.70;;;7.50;82.40;;;;;;5031815;28;20033;-67
2021/12/24 10:53:18;;;;;;;5.88;4.43;;;7.60;82.90;;;;;;5014948;28;20058;-67
2021/12/24 10:55:51;;;;;;;3.78;3.42;;;7.70;82.90;;;;;;5015738;28;20094;-66
2021/12/24 10:58:20;;;;;;;5.10;3.60;;;7.70;82.90;;;;;;5029164;28;20038;-67
2021/12/24 11:01:00;;;;;;;4.88;3.30;;;7.80;82.70;;;;;;5031824;28;20086;-67
2021/12/24 11:03:29;;;;;;;4.03;3.40;;;7.80;82.90;;;;;;5033385;28;20037;-66
2021/12/24 11:06:07;;;;;;;5.00;3.50;;;7.80;82.70;;;;;;5030106;28;20030;-67
2021/12/24 11:08:33;;;;;;;6.15;3.55;;;7.90;83.10;;;;;;5033804;28;20040;-67
2021/12/24 11:11:03;;;;;;;3.88;3.13;;;7.90;82.70;;;;;;5032096;28;20033;-67
2021/12/24 11:13:40;;;;;;;3.83;3.05;;;8.00;82.70;;;;;;5034940;28;20053;-66
2021/12/24 11:16:08;;;;;;;7.40;3.45;;;8.00;82.90;;;;;;5036157;28;20041;-67
2021/12/24 11:18:40;;;;;;;7.07;4.40;;;8.00;82.60;;;;;;5033780;28;20037;-67
2021/12/24 11:21:11;;;;;;;6.53;3.88;;;8.10;83.60;;;;;;5039434;28;20109;-67
2021/12/24 11:23:40;;;;;;;5.40;3.60;;;8.10;82.90;;;;;;5039437;28;20029;-67
2021/12/24 11:26:19;;;;;;;3.78;2.97;;;8.20;82.70;;;;;;5037750;28;20090;-66
2021/12/24 11:28:46;;;;;;;5.03;3.20;;;8.20;82.90;;;;;;5036737;28;20030;-67
2021/12/24 11:31:13;;;;;;;5.68;3.00;;;8.20;82.40;;;;;;5037634;28;20022;-67
2021/12/24 11:33:42;;;;;;;4.57;3.10;;;8.20;82.20;;;;;;5038163;28;20025;-67
2021/12/24 11:36:11;;;;;;;4.28;3.10;;;8.30;82.30;;;;;;5038616;28;20060;-67
2021/12/24 11:38:43;;;;;;;5.57;3.65;;;8.30;82.20;;;;;;5037995;28;20108;-67
2021/12/24 11:41:12;;;;;;;4.97;3.47;;;8.30;82.10;;;;;;5038394;28;20142;-67
2021/12/24 11:43:40;;;;;;;4.00;2.95;;;8.30;82.20;;;;;;5037424;28;20033;-67
2021/12/24 11:46:08;;;;;;;4.95;3.58;;;8.30;82.20;;;;;;5031625;28;20037;-67
2021/12/24 11:48:34;;;;;;;7.93;3.72;;;8.30;82.30;;;;;;5038369;28;20022;-67
2021/12/24 11:51:06;;;;;;;8.15;4.15;;;8.30;82.70;;;;;;5037305;28;20057;-70
2021/12/24 11:53:33;;;;;;;3.60;3.00;;;8.30;82.40;;;;;;5035742;28;20248;-66
2021/12/24 11:56:15;;;;;;;7.60;4.57;;;8.30;82.40;;;;;;5037698;28;20057;-67
2021/12/24 11:58:53;;;;;;;4.68;2.92;;;8.30;82.70;;;;;;5035714;28;20527;-66
2021/12/24 12:01:22;;;;;;;5.72;3.70;;;8.30;82.80;;;;;;5017852;28;20037;-68
2021/12/24 12:03:52;;;;;;;8.65;4.80;;;8.40;82.60;;;;;;5021413;28;20522;-67
2021/12/24 12:06:17;;;;;;;7.07;4.13;;;8.40;82.40;;;;;;5020885;28;20045;-67
2021/12/24 12:08:47;;;;;;;6.15;3.72;;;8.40;82.40;;;;;;5016062;28;20401;-68
2021/12/24 12:11:27;;;;;;;7.60;4.30;;;8.40;82.50;;;;;;5020237;28;20041;-67
2021/12/24 12:14:07;;;;;;;9.93;5.10;;;8.40;82.70;;;;;;5019688;28;20064;-67
2021/12/24 12:16:39;;;;;;;8.05;4.40;;;8.40;82.90;;;;;;5019070;28;20033;-67
2021/12/24 12:19:11;;;;;;;19.88;8.52;;;8.40;82.60;;;;;;5021429;28;20532;-68
2021/12/24 12:21:50;;;;;;;8.85;5.38;;;8.40;82.70;;;;;;5018897;28;20041;-68
2021/12/24 12:26:47;;;;;;;5.55;3.45;;;8.40;82.40;;;;;;5016389;28;20117;-67
2021/12/24 12:29:22;;;;;;;4.78;3.33;;;8.40;82.40;;;;;;5018307;28;20044;-68
2021/12/24 12:32:02;;;;;;;7.43;3.85;;;8.40;82.80;;;;;;5020509;28;20588;-68
2021/12/24 12:34:40;;;;;;;3.60;3.00;;;8.40;82.70;;;;;;5020221;28;20037;-68
2021/12/24 12:37:18;;;;;;;7.25;3.22;;;8.30;82.70;;;;;;5020430;28;20532;-68
2021/12/24 12:39:46;;;;;;;5.75;3.17;;;8.30;82.90;;;;;;5019987;28;20052;-68
2021/12/24 12:42:17;;;;;;;4.13;2.53;;;8.30;82.90;;;;;;5019033;28;20030;-68
2021/12/24 12:44:47;;;;;;;5.68;3.30;;;8.20;82.60;;;;;;5021165;28;20569;-68
2021/12/24 12:47:28;;;;;;;15.10;6.75;;;8.20;82.90;;;;;;5019951;28;20030;-68
2021/12/24 12:50:13;;;;;;;11.98;6.50;;;8.30;83.30;;;;;;5029129;28;20041;-68
2021/12/24 12:52:41;;;;;;;5.93;4.13;;;8.20;83.90;;;;;;5034389;28;20037;-68
2021/12/24 12:55:26;;;;;;;6.15;4.22;;;8.20;83.20;;;;;;5034524;28;20316;-68
2021/12/24 12:57:51;;;;;;;8.85;5.35;;;8.20;83.30;;;;;;5032542;28;20048;-67
2021/12/24 13:00:20;;;;;;;6.05;3.88;;;8.20;83.60;;;;;;5032230;28;20037;-67
2021/12/24 13:03:07;;;;;;;4.90;3.50;;;8.20;83.30;;;;;;5032709;28;20042;-68
2021/12/24 13:05:42;;;;;;;8.60;4.88;;;8.20;83.80;;;;;;5029327;28;20116;-65
2021/12/24 13:08:13;;;;;;;6.05;3.95;;;8.20;83.60;;;;;;5034766;28;20048;-68
2021/12/24 13:10:39;;;;;;;7.97;4.50;;;8.20;83.50;;;;;;5029822;28;20396;-68
2021/12/24 13:13:06;;;;;;;7.68;4.22;;;8.20;83.40;;;;;;5031304;28;20116;-68
2021/12/24 13:15:43;;;;;;;14.45;7.15;;;8.20;83.70;;;;;;5035991;28;20045;-68
2021/12/24 13:18:23;;;;;;;15.13;7.50;;;8.20;84.20;;;;;;5028076;28;20033;-68
2021/12/24 13:23:38;;;;;;;6.43;4.25;;;8.20;83.90;;;;;;5006117;28;20120;-68
2021/12/24 13:26:22;;;;;;;7.70;5.43;;;8.20;83.80;;;;;;5034764;28;20417;-67
2021/12/24 13:28:58;;;;;;;7.70;5.47;;;8.30;84.30;;;;;;5031439;28;20092;-68
2021/12/24 13:31:26;;;;;;;6.13;4.30;;;8.30;83.90;;;;;;5032479;28;20160;-68
2021/12/24 13:33:52;;;;;;;5.57;3.97;;;8.30;83.60;;;;;;5036293;28;20033;-67
2021/12/24 13:36:23;;;;;;;4.78;3.67;;;8.40;83.60;;;;;;5034684;28;20029;-68
2021/12/24 13:38:48;;;;;;;4.30;3.63;;;8.40;83.60;;;;;;5031116;28;20516;-68
2021/12/24 13:41:14;;;;;;;14.25;9.07;;;8.40;83.50;;;;;;5031027;28;20176;-68
2021/12/24 13:43:40;;;;;;;4.88;3.60;;;8.40;83.40;;;;;;5032464;28;20037;-68
2021/12/24 13:46:11;;;;;;;3.95;3.20;;;8.40;83.30;;;;;;5034396;28;20033;-68
2021/12/24 13:56:40;;;;;;;9.35;6.88;;;8.40;82.90;;;;;;5034189;28;20144;-67
2021/12/24 13:59:09;;;;;;;8.15;5.70;;;8.30;82.90;;;;;;5032329;28;20051;-68
2021/12/24 14:01:39;;;;;;;5.15;3.90;;;8.30;83.10;;;;;;5033789;28;20041;-68
2021/12/24 14:04:06;;;;;;;5.05;3.55;;;8.30;83.10;;;;;;5034673;28;20032;-67
2021/12/24 14:06:35;;;;;;;4.70;3.90;;;8.30;83.10;;;;;;5034373;28;20070;-67
2021/12/24 14:09:17;;;;;;;4.82;3.30;;;8.20;83.20;;;;;;5032783;28;20033;-67
2021/12/24 14:11:45;;;;;;;4.93;3.65;;;8.20;83.30;;;;;;5027697;28;20500;-67
2021/12/24 14:14:17;;;;;;;5.68;4.40;;;8.20;83.00;;;;;;5030345;28;20491;-67
2021/12/24 14:19:37;;;;;;;6.57;4.00;;;8.10;82.90;;;;;;5036239;28;20575;-67
2021/12/24 14:22:13;;;;;;;4.85;3.78;;;8.10;83.00;;;;;;5035464;28;20029;-67
2021/12/24 14:25:00;;;;;;;15.13;8.65;;;8.00;83.30;;;;;;5031634;28;20056;-67
2021/12/24 14:27:29;;;;;;;6.88;5.30;;;8.00;83.50;;;;;;5032553;28;20104;-67
2021/12/24 14:30:01;;;;;;;5.80;4.13;;;8.00;83.20;;;;;;5031022;28;20128;-67
2021/12/24 14:32:33;;;;;;;5.20;3.42;;;8.00;83.30;;;;;;5030694;28;20029;-67
2021/12/24 14:35:14;;;;;;;5.78;4.32;;;7.90;82.40;;;;;;5034175;28;20038;-67
2021/12/24 14:37:41;;;;;;;7.22;4.85;;;7.90;83.00;;;;;;5031930;28;20104;-67
2021/12/24 14:40:06;;;;;;;6.00;5.40;;;7.90;83.00;;;;;;5028370;28;20128;-67
2021/12/24 14:42:46;;;;;;;6.80;5.00;;;7.90;83.10;;;;;;5031712;28;20577;-67
2021/12/24 14:45:34;;;;;;;4.90;4.32;;;7.80;83.40;;;;;;5027936;28;20092;-68
2021/12/24 14:48:10;;;;;;;5.82;3.78;;;7.80;83.80;;;;;;5032616;28;20037;-67
2021/12/24 14:50:44;;;;;;;6.90;4.78;;;7.80;84.50;;;;;;5035391;28;20037;-68
2021/12/24 14:53:19;;;;;;;5.05;3.97;;;7.80;83.40;;;;;;5036413;28;20563;-67
2021/12/24 14:56:02;;;;;;;6.32;4.15;;;7.80;83.80;;;;;;5037161;28;20045;-68
2021/12/24 14:58:39;;;;;;;5.93;4.20;;;7.80;83.80;;;;;;5032106;28;20140;-67
2021/12/24 15:01:17;;;;;;;4.70;3.80;;;7.70;84.00;;;;;;5035884;28;20034;-68
2021/12/24 15:03:45;;;;;;;5.60;3.63;;;7.70;84.00;;;;;;5035400;28;20052;-67